Time;durP1;ratioP1;P1;durP2;ratioP2;P2;SDS_P1;SDS_P2;PMS_P1;PMS_P2;Temp;Humidity;BMP_temperature;BMP_pressure;BME280_temperature;BME280_humidity;BME280_pressure;Samples;Min_cycle;Max_cycle;Signal;HPM_P1;HPM_P2
2023/08/24 00:00:45;;;;;;;9.80;5.80;;;;;;;25.73;50.06;97644.53;5131860;27;20858;-74
2023/08/24 00:03:11;;;;;;;7.80;5.57;;;;;;;25.76;50.13;97652.13;5131412;27;20181;-74
2023/08/24 00:05:36;;;;;;;14.33;5.70;;;;;;;25.68;50.38;97644.47;5136980;27;20629;-74
2023/08/24 00:08:04;;;;;;;6.57;5.70;;;;;;;25.65;49.79;97640.38;5110263;27;20279;-74
2023/08/24 00:10:29;;;;;;;5.50;5.00;;;;;;;25.65;49.93;97648.41;5131433;27;20180;-74
2023/08/24 00:12:55;;;;;;;13.03;5.47;;;;;;;25.64;49.99;97645.97;5131559;27;20469;-75
2023/08/24 00:15:20;;;;;;;6.50;5.53;;;;;;;25.67;49.77;97645.50;5139988;27;20228;-73
2023/08/24 00:17:46;;;;;;;8.17;5.80;;;;;;;25.66;49.88;97646.56;5139535;27;20172;-75
2023/08/24 00:20:11;;;;;;;7.00;6.27;;;;;;;25.63;50.21;97638.97;5131386;27;20266;-74
2023/08/24 00:22:38;;;;;;;12.10;5.63;;;;;;;25.56;50.46;97637.28;5148302;27;20183;-74
2023/08/24 00:25:05;;;;;;;5.90;5.13;;;;;;;25.54;50.38;97635.84;5136216;27;20731;-74
2023/08/24 00:27:30;;;;;;;8.77;6.23;;;;;;;25.51;50.31;97626.44;5114796;27;21102;-73
2023/08/24 00:29:56;;;;;;;8.83;5.60;;;;;;;25.47;50.51;97630.63;5131563;27;20429;-74
2023/08/24 00:32:23;;;;;;;8.90;6.47;;;;;;;25.36;51.21;97623.41;5130900;27;20201;-75
2023/08/24 00:34:48;;;;;;;9.17;5.87;;;;;;;25.34;50.70;97625.50;5131370;27;20212;-74
2023/08/24 00:37:14;;;;;;;9.43;6.00;;;;;;;25.32;50.69;97624.94;5132721;27;20433;-74
2023/08/24 00:39:39;;;;;;;6.03;5.40;;;;;;;25.30;51.07;97615.28;5139098;27;20678;-75
2023/08/24 00:42:05;;;;;;;7.70;5.70;;;;;;;25.32;50.99;97608.88;5144645;27;20180;-77
2023/08/24 00:44:31;;;;;;;6.13;5.47;;;;;;;25.34;50.60;97606.72;5142409;27;20283;-75
2023/08/24 00:46:58;;;;;;;5.90;5.30;;;;;;;25.35;50.71;97606.50;5151253;27;20501;-75
2023/08/24 00:49:23;;;;;;;9.57;6.20;;;;;;;25.29;51.06;97600.25;5139130;27;20225;-75
2023/08/24 00:51:49;;;;;;;6.77;5.80;;;;;;;25.25;51.19;97596.38;5147662;27;20410;-75
2023/08/24 00:54:15;;;;;;;6.33;5.40;;;;;;;25.16;51.00;97605.88;5145600;27;20227;-74
2023/08/24 00:56:40;;;;;;;6.60;5.90;;;;;;;25.04;51.62;97605.88;5142530;27;20184;-75
2023/08/24 00:59:06;;;;;;;7.73;5.97;;;;;;;25.10;51.79;97607.63;5142478;27;20532;-76
2023/08/24 01:01:31;;;;;;;6.40;5.80;;;;;;;25.12;51.78;97594.81;5114814;27;20192;-74
2023/08/24 01:03:57;;;;;;;10.70;6.30;;;;;;;25.09;51.45;97594.44;5103654;27;20183;-73
2023/08/24 01:06:22;;;;;;;7.30;5.73;;;;;;;25.11;51.54;97593.19;5139098;27;20609;-75
2023/08/24 01:08:48;;;;;;;8.87;5.70;;;;;;;25.13;51.75;97599.13;5129056;27;20593;-74
2023/08/24 01:11:51;;;;;;;6.57;5.63;;;;;;;25.14;51.96;97594.56;5130839;27;20575;-73
2023/08/24 01:14:44;;;;;;;7.87;5.57;;;;;;;25.13;51.98;97593.75;5125084;27;20219;-75
2023/08/24 01:17:13;;;;;;;7.37;5.53;;;;;;;25.15;51.57;97601.56;5106531;27;20945;-75
2023/08/24 01:19:42;;;;;;;6.40;5.30;;;;;;;25.13;51.88;97592.94;5138236;27;20429;-73
2023/08/24 01:22:23;;;;;;;6.40;5.60;;;;;;;25.16;51.42;97597.81;5124885;27;20415;-75
2023/08/24 01:24:55;;;;;;;6.03;5.40;;;;;;;25.14;51.15;97590.00;5139558;27;20634;-75
2023/08/24 01:27:21;;;;;;;6.03;5.53;;;;;;;25.11;51.31;97586.97;5125492;27;20433;-75
2023/08/24 01:29:47;;;;;;;6.50;5.90;;;;;;;25.08;51.29;97585.59;5138165;27;20538;-75
2023/08/24 01:32:14;;;;;;;6.73;5.73;;;;;;;25.05;51.42;97588.75;5139091;27;20878;-75
2023/08/24 01:34:39;;;;;;;6.23;5.63;;;;;;;25.02;51.67;97585.72;5132022;27;20547;-74
2023/08/24 01:37:06;;;;;;;8.73;5.73;;;;;;;24.99;51.48;97585.16;5138222;27;20716;-75
2023/08/24 01:39:41;;;;;;;8.73;5.53;;;;;;;24.98;51.90;97572.78;5115909;28;20235;-75
2023/08/24 01:42:08;;;;;;;6.10;5.60;;;;;;;24.95;51.64;97581.28;5129358;27;20413;-74
2023/08/24 01:44:35;;;;;;;7.23;5.80;;;;;;;24.89;52.13;97576.91;5120279;27;20437;-74
2023/08/24 01:47:03;;;;;;;6.60;6.00;;;;;;;24.92;52.16;97587.16;5099809;28;20941;-76
2023/08/24 01:49:29;;;;;;;7.73;6.03;;;;;;;24.91;51.83;97573.97;5090969;28;20466;-76
2023/08/24 01:51:55;;;;;;;7.80;5.83;;;;;;;24.87;51.98;97573.63;5119892;27;20421;-75
2023/08/24 01:54:20;;;;;;;6.50;5.63;;;;;;;24.84;52.05;97576.78;5126479;27;20302;-75
2023/08/24 01:56:46;;;;;;;7.67;5.87;;;;;;;24.79;51.99;97576.69;5113120;27;20647;-75
2023/08/24 01:59:11;;;;;;;5.87;5.33;;;;;;;24.79;52.30;97574.00;5135139;27;20246;-73
2023/08/24 02:01:36;;;;;;;6.20;5.60;;;;;;;24.76;52.56;97571.78;5132634;27;20208;-75
2023/08/24 02:04:02;;;;;;;8.03;6.20;;;;;;;24.80;52.51;97572.97;5129400;27;20276;-74
2023/08/24 02:06:28;;;;;;;7.10;6.40;;;;;;;24.74;52.26;97576.56;5125849;27;20200;-74
2023/08/24 02:08:53;;;;;;;17.00;6.23;;;;;;;24.67;52.73;97580.16;5128311;27;20202;-73
2023/08/24 02:11:18;;;;;;;6.80;6.07;;;;;;;24.61;52.90;97581.09;5129729;27;20212;-75
2023/08/24 02:13:44;;;;;;;7.10;6.13;;;;;;;24.55;52.64;97576.69;5141566;27;20211;-73
2023/08/24 02:16:10;;;;;;;8.00;5.53;;;;;;;24.46;53.17;97583.41;5133773;27;20199;-75
2023/08/24 02:18:35;;;;;;;7.40;6.37;;;;;;;24.45;53.19;97581.78;5144627;27;20186;-75
2023/08/24 02:21:07;;;;;;;5.80;5.30;;;;;;;24.49;53.23;97578.44;5165709;27;20239;-75
2023/08/24 02:23:32;;;;;;;10.23;6.13;;;;;;;24.44;53.18;97574.81;5149301;27;20175;-76
2023/08/24 02:25:57;;;;;;;8.70;6.27;;;;;;;24.38;53.67;97577.38;5145238;27;20554;-74
2023/08/24 02:28:23;;;;;;;7.83;5.83;;;;;;;24.38;53.23;97577.38;5153971;27;20275;-75
2023/08/24 02:30:48;;;;;;;10.47;6.50;;;;;;;24.37;53.24;97578.41;5131057;27;20202;-75
2023/08/24 02:33:14;;;;;;;10.67;6.90;;;;;;;24.39;53.07;97581.69;5132270;27;20204;-75
2023/08/24 02:35:39;;;;;;;9.37;5.63;;;;;;;24.41;53.13;97564.56;5129833;27;20207;-75
2023/08/24 02:38:05;;;;;;;9.10;6.07;;;;;;;24.34;53.27;97572.72;5132319;27;20258;-75
2023/08/24 02:40:30;;;;;;;8.60;5.90;;;;;;;24.27;53.52;97564.78;5133606;27;20669;-75
2023/08/24 02:42:55;;;;;;;7.00;6.40;;;;;;;24.22;53.59;97562.81;5144997;27;20523;-76
2023/08/24 02:45:21;;;;;;;6.83;6.13;;;;;;;24.28;53.58;97570.94;5132787;27;20218;-74
2023/08/24 02:47:46;;;;;;;7.07;6.37;;;;;;;24.31;53.66;97565.13;5133550;27;20191;-75
2023/08/24 02:50:12;;;;;;;6.70;6.10;;;;;;;24.32;53.53;97561.41;5136114;27;20209;-75
2023/08/24 02:52:37;;;;;;;7.10;6.40;;;;;;;24.26;53.45;97573.88;5129185;27;20276;-75
2023/08/24 02:55:03;;;;;;;12.43;6.40;;;;;;;24.24;53.67;97565.25;5141215;27;20273;-75
2023/08/24 02:57:29;;;;;;;8.60;6.67;;;;;;;24.17;53.66;97560.00;5139915;27;20179;-74
2023/08/24 02:59:54;;;;;;;8.60;6.87;;;;;;;24.15;53.48;97556.75;5124295;27;20213;-76
2023/08/24 03:02:19;;;;;;;6.57;5.97;;;;;;;24.12;54.24;97551.88;5138064;27;20211;-75
2023/08/24 03:04:45;;;;;;;11.40;6.60;;;;;;;24.13;54.07;97555.34;5144296;27;20693;-74
2023/08/24 03:07:10;;;;;;;12.20;6.47;;;;;;;24.11;53.87;97554.75;5135337;27;20662;-74
2023/08/24 03:09:36;;;;;;;8.10;6.40;;;;;;;24.17;54.11;97553.84;5124295;27;20633;-74
2023/08/24 03:12:02;;;;;;;7.77;6.50;;;;;;;24.17;53.90;97551.16;5143592;27;20598;-76
2023/08/24 03:14:27;;;;;;;12.20;6.40;;;;;;;24.13;54.13;97555.34;5119623;27;20283;-74
2023/08/24 03:16:52;;;;;;;7.90;7.10;;;;;;;24.10;53.86;97551.28;5120550;27;20267;-75
2023/08/24 03:19:18;;;;;;;8.23;6.60;;;;;;;24.14;53.96;97540.91;5145798;27;20270;-74
2023/08/24 03:21:44;;;;;;;7.20;6.50;;;;;;;24.14;53.69;97539.03;5135760;27;20263;-75
2023/08/24 03:24:09;;;;;;;7.03;6.30;;;;;;;24.14;54.23;97536.38;5122361;27;20180;-76
2023/08/24 03:26:35;;;;;;;8.57;7.00;;;;;;;24.15;54.12;97537.19;5100166;27;20183;-74
2023/08/24 03:29:00;;;;;;;7.60;6.80;;;;;;;24.13;54.35;97537.41;5139802;27;20726;-74
2023/08/24 03:31:26;;;;;;;7.30;6.33;;;;;;;24.05;54.23;97546.63;5131394;27;20275;-74
2023/08/24 03:33:51;;;;;;;7.67;6.97;;;;;;;24.05;54.23;97546.63;5122702;27;20200;-74
2023/08/24 03:36:17;;;;;;;7.77;7.00;;;;;;;24.05;54.37;97543.13;5131865;27;20188;-75
2023/08/24 03:38:42;;;;;;;12.60;6.60;;;;;;;24.05;54.68;97546.63;5124304;27;20234;-74
2023/08/24 03:41:08;;;;;;;7.37;6.67;;;;;;;24.04;54.50;97545.00;5112994;27;20665;-74
2023/08/24 03:43:34;;;;;;;10.70;6.67;;;;;;;24.03;54.04;97532.66;5129165;27;20181;-74
2023/08/24 03:46:00;;;;;;;11.83;7.13;;;;;;;23.96;54.93;97531.94;5117112;27;20296;-74
2023/08/24 03:48:26;;;;;;;7.17;6.47;;;;;;;23.96;54.92;97531.94;5132128;27;20776;-74
2023/08/24 03:50:55;;;;;;;7.87;6.20;;;;;;;23.97;55.03;97520.19;5130940;27;20184;-75
2023/08/24 03:53:22;;;;;;;10.17;6.60;;;;;;;23.97;54.80;97524.72;5133448;27;20461;-75
2023/08/24 03:55:49;;;;;;;7.20;5.90;;;;;;;23.95;55.07;97514.22;5127385;27;20495;-75
2023/08/24 03:58:14;;;;;;;12.00;6.83;;;;;;;23.77;55.47;97509.75;5135963;27;20902;-73
2023/08/24 04:00:40;;;;;;;7.60;6.83;;;;;;;23.81;55.38;97518.16;5143242;27;20504;-74
2023/08/24 04:03:05;;;;;;;8.87;6.70;;;;;;;23.84;55.52;97506.97;5134195;27;20846;-75
2023/08/24 04:05:31;;;;;;;8.97;7.43;;;;;;;23.87;54.99;97496.66;5136665;27;20204;-74
2023/08/24 04:07:56;;;;;;;8.63;7.63;;;;;;;23.88;55.22;97492.91;5138976;27;20180;-75
2023/08/24 04:10:22;;;;;;;8.33;6.67;;;;;;;23.91;55.23;97497.00;5130911;27;20695;-75
2023/08/24 04:12:47;;;;;;;9.73;6.50;;;;;;;23.95;55.54;97492.78;5131026;27;20252;-75
2023/08/24 04:15:13;;;;;;;7.73;6.13;;;;;;;23.98;55.19;97495.06;5130501;27;20272;-75
2023/08/24 04:17:38;;;;;;;9.83;6.17;;;;;;;24.01;55.36;97497.28;5130695;27;20302;-74
2023/08/24 04:20:06;;;;;;;6.97;6.37;;;;;;;24.05;54.92;97493.09;5135414;27;20203;-73
2023/08/24 04:22:32;;;;;;;7.53;6.83;;;;;;;24.02;55.21;97496.22;5130645;27;20179;-75
2023/08/24 04:24:57;;;;;;;8.93;7.07;;;;;;;24.00;55.38;97490.28;5126427;27;21083;-74
2023/08/24 04:27:22;;;;;;;7.33;6.50;;;;;;;24.05;55.24;97487.75;5126009;27;20184;-74
2023/08/24 04:29:48;;;;;;;11.33;6.93;;;;;;;24.08;55.19;97483.78;5143460;27;20223;-74
2023/08/24 04:32:14;;;;;;;7.97;6.37;;;;;;;24.13;55.25;97494.56;5145386;27;20176;-74
2023/08/24 04:34:39;;;;;;;12.53;6.33;;;;;;;24.16;55.23;97488.75;5141102;27;20681;-73
2023/08/24 04:37:05;;;;;;;8.97;6.60;;;;;;;24.15;55.03;97481.78;5139444;27;20270;-74
2023/08/24 04:39:31;;;;;;;7.67;6.27;;;;;;;24.17;55.23;97476.22;5136008;27;20183;-75
2023/08/24 04:41:57;;;;;;;8.00;6.47;;;;;;;24.16;55.32;97472.69;5119269;27;20508;-73
2023/08/24 04:44:22;;;;;;;6.67;6.03;;;;;;;24.15;55.43;97475.63;5130334;27;20199;-74
2023/08/24 04:46:49;;;;;;;7.97;7.17;;;;;;;24.16;55.45;97482.63;5130527;27;20180;-75
2023/08/24 04:49:14;;;;;;;11.40;6.80;;;;;;;24.18;55.27;97484.00;5121324;27;20180;-75
2023/08/24 04:51:40;;;;;;;10.03;6.90;;;;;;;24.19;55.48;97482.16;5129951;27;20828;-75
2023/08/24 04:54:05;;;;;;;9.33;6.70;;;;;;;24.25;55.28;97480.41;5130446;27;20580;-74
2023/08/24 04:56:31;;;;;;;8.63;6.47;;;;;;;24.23;55.30;97478.78;5123327;27;20217;-75
2023/08/24 04:58:57;;;;;;;10.50;7.00;;;;;;;24.23;55.11;97483.28;5121652;27;20187;-74
2023/08/24 05:01:26;;;;;;;9.73;6.70;;;;;;;24.26;55.32;97487.38;5137979;27;20209;-74
2023/08/24 05:03:52;;;;;;;11.53;6.83;;;;;;;24.27;55.18;97484.47;5129865;27;20418;-74
2023/08/24 05:06:18;;;;;;;10.33;8.03;;;;;;;24.31;55.17;97479.44;5126865;27;20503;-75
2023/08/24 05:08:44;;;;;;;12.90;7.13;;;;;;;24.35;55.03;97488.66;5124864;27;20490;-75
2023/08/24 05:11:19;;;;;;;9.30;7.10;;;;;;;24.35;55.48;97480.63;5127667;27;20494;-75
2023/08/24 05:13:45;;;;;;;7.90;6.70;;;;;;;24.31;55.19;97472.25;5122540;27;20200;-74
2023/08/24 05:16:12;;;;;;;7.77;6.97;;;;;;;24.32;55.35;97465.81;5117482;27;20989;-75
2023/08/24 05:18:37;;;;;;;11.43;7.70;;;;;;;24.37;55.27;97467.81;5127003;27;20183;-74
2023/08/24 05:21:03;;;;;;;8.70;7.20;;;;;;;24.41;55.47;97460.91;5131105;27;21002;-74
2023/08/24 05:23:29;;;;;;;9.13;7.20;;;;;;;24.46;55.31;97462.88;5127713;27;20180;-74
2023/08/24 05:25:57;;;;;;;11.57;7.60;;;;;;;24.50;55.49;97456.00;5127927;27;21239;-75
2023/08/24 05:28:22;;;;;;;7.50;6.30;;;;;;;24.56;55.69;97459.63;5117044;27;20439;-75
2023/08/24 05:30:48;;;;;;;11.23;6.73;;;;;;;24.63;55.36;97455.75;5124888;27;20425;-75
2023/08/24 05:33:13;;;;;;;13.93;6.40;;;;;;;24.69;54.57;97460.22;5122457;27;20200;-76
2023/08/24 05:35:39;;;;;;;7.73;7.00;;;;;;;24.73;54.11;97451.69;5107035;27;20739;-74
2023/08/24 05:38:04;;;;;;;7.30;6.60;;;;;;;24.77;54.37;97447.47;5120592;27;20184;-74
2023/08/24 05:40:29;;;;;;;7.53;6.53;;;;;;;24.81;54.34;97440.59;5138218;27;20262;-74
2023/08/24 05:42:55;;;;;;;7.47;6.13;;;;;;;24.84;53.61;97442.78;5135539;27;20264;-74
2023/08/24 05:45:22;;;;;;;8.53;6.80;;;;;;;24.86;53.65;97435.31;5137920;27;20238;-73
2023/08/24 05:47:47;;;;;;;7.00;5.97;;;;;;;24.88;53.62;97438.56;5132986;27;20226;-74
2023/08/24 05:50:12;;;;;;;12.63;6.50;;;;;;;24.91;52.98;97440.78;5123341;27;20430;-74
2023/08/24 05:52:38;;;;;;;7.40;6.23;;;;;;;24.94;52.83;97428.75;5133701;27;20275;-73
2023/08/24 05:55:03;;;;;;;8.03;6.30;;;;;;;25.00;52.66;97433.97;5133707;27;20222;-74
2023/08/24 05:57:29;;;;;;;6.83;6.17;;;;;;;25.04;52.35;97434.31;5133153;27;20203;-74
2023/08/24 05:59:54;;;;;;;7.70;5.70;;;;;;;24.95;52.18;97436.56;5142503;27;20800;-74
2023/08/24 06:02:20;;;;;;;6.33;5.70;;;;;;;25.03;51.54;97442.59;5138008;27;20775;-73
2023/08/24 06:04:45;;;;;;;8.60;5.73;;;;;;;25.05;51.87;97445.84;5139037;27;20184;-75
2023/08/24 06:07:11;;;;;;;9.80;5.87;;;;;;;25.07;51.91;97441.06;5096383;27;20177;-75
2023/08/24 06:09:36;;;;;;;10.30;7.10;;;;;;;25.13;50.95;97443.63;5139147;27;20255;-72
2023/08/24 06:12:02;;;;;;;8.57;6.00;;;;;;;25.19;51.01;97441.84;5137015;27;20203;-74
2023/08/24 06:14:27;;;;;;;7.70;6.03;;;;;;;25.23;50.96;97439.47;5145746;27;20237;-75
2023/08/24 06:16:53;;;;;;;12.43;6.10;;;;;;;25.25;50.48;97440.84;5146879;27;20691;-75
2023/08/24 06:19:18;;;;;;;6.70;5.80;;;;;;;25.13;50.73;97448.97;5141714;27;20228;-74
2023/08/24 06:21:44;;;;;;;8.97;6.10;;;;;;;25.18;50.83;97448.25;5147603;27;20176;-75
2023/08/24 06:24:09;;;;;;;9.80;6.40;;;;;;;25.24;50.48;97454.50;5135610;27;20204;-74
2023/08/24 06:26:35;;;;;;;10.13;5.93;;;;;;;25.28;50.33;97445.75;5123561;27;20201;-73
2023/08/24 06:29:00;;;;;;;10.23;5.53;;;;;;;25.27;50.58;97449.47;5141490;27;20277;-74
2023/08/24 06:31:26;;;;;;;7.10;5.47;;;;;;;25.34;50.55;97453.84;5141525;27;20181;-75
2023/08/24 06:33:52;;;;;;;9.13;5.50;;;;;;;25.37;50.13;97459.56;5132062;27;20197;-75
2023/08/24 06:36:18;;;;;;;11.47;5.57;;;;;;;25.41;50.68;97455.38;5134081;27;20215;-74
2023/08/24 06:38:43;;;;;;;12.47;5.80;;;;;;;25.48;50.87;97455.22;5132506;27;20409;-74
2023/08/24 06:41:11;;;;;;;6.03;5.50;;;;;;;25.53;50.45;97463.34;5136399;27;20181;-75
2023/08/24 06:43:38;;;;;;;14.47;5.97;;;;;;;25.57;50.06;97469.88;5141927;27;20164;-74
2023/08/24 06:46:07;;;;;;;11.40;6.00;;;;;;;25.60;50.00;97480.09;5132570;27;20434;-74
2023/08/24 06:48:34;;;;;;;6.90;5.30;;;;;;;25.66;50.24;97493.59;5136770;27;20413;-74
2023/08/24 06:51:00;;;;;;;8.87;5.20;;;;;;;25.72;50.56;97498.81;5136930;27;20429;-74
2023/08/24 06:53:25;;;;;;;10.03;5.80;;;;;;;25.76;50.58;97510.69;5132555;27;20816;-75
2023/08/24 06:55:57;;;;;;;11.73;5.63;;;;;;;25.81;50.54;97523.38;5141198;27;20196;-75
2023/08/24 06:58:24;;;;;;;6.80;5.27;;;;;;;25.87;50.39;97532.34;5118726;27;20706;-73
2023/08/24 07:00:52;;;;;;;9.10;5.60;;;;;;;25.92;50.30;97535.09;5132974;27;20409;-74
2023/08/24 07:03:18;;;;;;;8.30;5.50;;;;;;;25.95;50.51;97525.75;5130497;27;20418;-73
2023/08/24 07:05:44;;;;;;;7.13;5.63;;;;;;;26.00;49.98;97520.44;5137789;27;20517;-74
2023/08/24 07:08:10;;;;;;;7.30;5.47;;;;;;;26.04;50.94;97516.22;5152745;27;20409;-75
2023/08/24 07:10:35;;;;;;;17.53;5.20;;;;;;;26.11;50.89;97499.97;5153282;27;20439;-75
2023/08/24 07:13:01;;;;;;;18.03;5.90;;;;;;;26.14;50.69;97486.88;5144485;27;20231;-74
2023/08/24 07:15:26;;;;;;;7.90;5.30;;;;;;;26.35;50.04;97489.81;5132660;27;20204;-75
2023/08/24 07:17:52;;;;;;;10.10;5.97;;;;;;;26.50;49.67;97483.88;5122171;27;20255;-73
2023/08/24 07:20:17;;;;;;;9.80;5.50;;;;;;;26.58;48.75;97478.06;5142114;27;20204;-74
2023/08/24 07:22:43;;;;;;;7.50;5.30;;;;;;;26.68;48.67;97472.00;5147717;27;20176;-75
2023/08/24 07:25:09;;;;;;;17.90;6.17;;;;;;;26.77;48.42;97467.00;5131607;27;20273;-73
2023/08/24 07:27:35;;;;;;;11.40;5.40;;;;;;;26.93;47.65;97468.81;5140555;27;20188;-73
2023/08/24 07:30:05;;;;;;;8.77;5.40;;;;;;;27.06;47.50;97456.03;5118136;27;20555;-74
2023/08/24 07:32:31;;;;;;;9.27;4.53;;;;;;;27.16;47.57;97458.03;5112662;27;20197;-74
2023/08/24 07:34:58;;;;;;;7.10;5.53;;;;;;;27.22;46.90;97459.72;5136945;27;20464;-74
2023/08/24 07:37:23;;;;;;;8.90;4.83;;;;;;;27.25;46.88;97473.47;5141483;27;20652;-74
2023/08/24 07:39:49;;;;;;;7.37;4.50;;;;;;;27.46;47.17;97470.19;5131876;27;20493;-74
2023/08/24 07:42:14;;;;;;;7.63;4.90;;;;;;;27.64;46.97;97467.09;5133317;27;20614;-75
2023/08/24 07:44:40;;;;;;;7.50;4.40;;;;;;;27.85;46.68;97469.97;5135330;27;20546;-75
2023/08/24 07:47:05;;;;;;;7.73;5.40;;;;;;;28.05;45.88;97462.00;5143866;27;20283;-74
2023/08/24 07:49:31;;;;;;;7.40;5.20;;;;;;;28.29;45.72;97467.03;5137586;27;20207;-74
2023/08/24 07:51:58;;;;;;;12.77;4.90;;;;;;;28.53;45.08;97461.22;5138833;27;20180;-75
2023/08/24 07:54:23;;;;;;;15.80;5.50;;;;;;;28.78;44.41;97473.19;5139560;27;20692;-74
2023/08/24 07:56:49;;;;;;;7.83;5.63;;;;;;;29.01;43.92;97465.69;5104679;27;20417;-74
2023/08/24 07:59:14;;;;;;;9.63;5.40;;;;;;;29.23;43.16;97466.31;5110855;27;20176;-75
2023/08/24 08:01:40;;;;;;;11.47;6.03;;;;;;;29.43;42.82;97467.44;5130821;27;20614;-75
2023/08/24 08:04:06;;;;;;;7.43;5.17;;;;;;;29.53;42.58;97470.13;5108944;27;20176;-75
2023/08/24 08:06:31;;;;;;;8.73;5.67;;;;;;;29.68;41.99;97469.31;5150974;27;20179;-75
2023/08/24 08:08:58;;;;;;;7.73;5.50;;;;;;;29.79;41.94;97480.94;5130423;27;20989;-75
2023/08/24 08:11:23;;;;;;;10.13;5.53;;;;;;;29.84;41.51;97486.34;5139206;27;20654;-75
2023/08/24 08:13:49;;;;;;;15.93;5.63;;;;;;;29.83;41.28;97489.28;5143238;27;20441;-75
2023/08/24 08:16:14;;;;;;;12.37;6.57;;;;;;;29.83;41.19;97487.44;5127623;27;20271;-74
2023/08/24 08:18:40;;;;;;;12.00;6.17;;;;;;;29.97;41.33;97482.28;5143284;27;20516;-74
2023/08/24 08:21:17;;;;;;;8.93;5.60;;;;;;;30.14;41.16;97484.69;5142959;27;20184;-75
2023/08/24 08:23:44;;;;;;;7.10;5.50;;;;;;;30.37;40.79;97477.06;5118965;27;20230;-75
2023/08/24 08:26:10;;;;;;;7.80;6.30;;;;;;;30.53;40.28;97471.63;5120588;27;20481;-75
2023/08/24 08:28:36;;;;;;;10.67;5.47;;;;;;;30.67;39.76;97467.28;5130061;27;21164;-76
2023/08/24 08:31:02;;;;;;;11.93;5.50;;;;;;;30.90;39.97;97473.13;5127646;27;20458;-75
2023/08/24 08:33:28;;;;;;;9.93;5.63;;;;;;;31.02;38.98;97462.75;5123690;27;20602;-75
2023/08/24 08:35:53;;;;;;;11.90;5.60;;;;;;;31.21;39.09;97471.06;5132086;27;20437;-74
2023/08/24 08:38:21;;;;;;;9.93;5.10;;;;;;;31.33;38.51;97464.50;5129278;27;20598;-75
2023/08/24 08:40:49;;;;;;;8.73;4.83;;;;;;;31.48;38.44;97469.00;5114718;27;20263;-74
2023/08/24 08:43:15;;;;;;;7.70;4.70;;;;;;;31.56;38.19;97471.09;5130375;27;20410;-74
2023/08/24 08:45:40;;;;;;;11.47;5.27;;;;;;;31.59;38.51;97469.72;5118586;27;20837;-74
2023/08/24 08:48:06;;;;;;;9.60;5.23;;;;;;;31.68;37.96;97468.03;5107284;27;20184;-75
2023/08/24 08:50:33;;;;;;;9.63;5.43;;;;;;;31.78;38.19;97464.44;5107248;27;20204;-73
2023/08/24 08:52:58;;;;;;;11.30;4.70;;;;;;;31.74;38.08;97464.22;5126217;27;20450;-75
2023/08/24 08:55:24;;;;;;;9.20;5.23;;;;;;;31.85;37.84;97468.44;5127476;27;20429;-73
2023/08/24 08:57:50;;;;;;;9.70;4.13;;;;;;;32.05;37.72;97466.66;5120591;27;20172;-72
2023/08/24 09:00:17;;;;;;;13.73;4.43;;;;;;;32.26;37.18;97467.25;5130544;27;20594;-75
2023/08/24 09:02:43;;;;;;;11.03;4.23;;;;;;;32.50;36.87;97461.03;5130147;27;20985;-74
2023/08/24 09:05:09;;;;;;;8.17;5.03;;;;;;;32.67;36.33;97459.72;5112033;27;20445;-74
2023/08/24 09:07:35;;;;;;;19.40;5.07;;;;;;;32.88;36.31;97450.28;5102564;27;20830;-74
2023/08/24 09:10:02;;;;;;;6.53;4.20;;;;;;;33.13;35.75;97451.00;5101412;27;20228;-75
2023/08/24 09:12:31;;;;;;;12.47;4.20;;;;;;;33.33;35.31;97443.66;5133197;27;20426;-73
2023/08/24 09:14:57;;;;;;;7.27;4.50;;;;;;;33.51;35.03;97440.13;5132306;27;20452;-75
2023/08/24 09:17:22;;;;;;;15.03;5.07;;;;;;;33.68;34.45;97444.19;5141485;27;20420;-75
2023/08/24 09:19:50;;;;;;;7.93;4.37;;;;;;;33.88;34.07;97437.63;5130064;27;20214;-75
2023/08/24 09:22:15;;;;;;;8.10;4.70;;;;;;;34.06;33.56;97435.94;5129307;27;20632;-75
2023/08/24 09:24:41;;;;;;;11.33;4.90;;;;;;;34.22;33.39;97424.75;5129472;27;20483;-75
2023/08/24 09:27:17;;;;;;;11.57;4.80;;;;;;;34.36;33.29;97409.25;5136489;27;20270;-75
2023/08/24 09:29:42;;;;;;;5.97;4.43;;;;;;;34.56;33.06;97401.78;5129581;27;20646;-75
2023/08/24 09:32:08;;;;;;;5.37;4.10;;;;;;;34.67;32.72;97394.22;5134633;27;20433;-75
2023/08/24 09:34:36;;;;;;;4.97;4.30;;;;;;;34.73;32.28;97393.81;5136402;27;20590;-74
2023/08/24 09:37:04;;;;;;;10.10;4.17;;;;;;;34.83;32.50;97400.13;5129459;27;20176;-75
2023/08/24 09:39:29;;;;;;;5.80;4.47;;;;;;;34.95;31.76;97400.41;5124924;27;20922;-73
2023/08/24 09:42:00;;;;;;;8.33;3.97;;;;;;;35.10;31.82;97396.53;5130690;27;20421;-74
2023/08/24 09:44:27;;;;;;;8.50;4.30;;;;;;;35.18;31.71;97386.81;5129318;27;20220;-74
2023/08/24 09:46:52;;;;;;;9.53;4.17;;;;;;;35.29;31.53;97390.88;5133709;27;21031;-74
2023/08/24 09:49:18;;;;;;;9.63;3.93;;;;;;;35.31;31.01;97385.16;5125871;27;20508;-75
2023/08/24 09:51:44;;;;;;;10.30;4.03;;;;;;;35.44;31.13;97383.50;5129970;27;20176;-74
2023/08/24 09:54:10;;;;;;;9.30;4.13;;;;;;;35.51;31.06;97370.25;5118641;27;20501;-76
2023/08/24 09:56:38;;;;;;;5.60;4.03;;;;;;;35.63;30.80;97365.03;5106720;27;20593;-74
2023/08/24 09:59:10;;;;;;;8.53;3.70;;;;;;;35.70;30.74;97348.22;5150937;27;20179;-75
2023/08/24 10:01:36;;;;;;;8.10;4.70;;;;;;;35.89;30.74;97353.44;5129779;27;20428;-75
2023/08/24 10:04:05;;;;;;;11.33;4.93;;;;;;;35.94;30.42;97350.56;5102730;27;20424;-74
2023/08/24 10:06:30;;;;;;;5.80;3.87;;;;;;;36.03;30.41;97330.72;5132193;27;20787;-75
2023/08/24 10:08:58;;;;;;;6.43;4.20;;;;;;;36.12;30.27;97328.81;5120056;28;20504;-75
2023/08/24 10:11:27;;;;;;;5.57;3.83;;;;;;;36.23;30.53;97326.63;5129420;27;20178;-74
2023/08/24 10:13:59;;;;;;;4.77;4.13;;;;;;;36.37;29.92;97312.81;5111404;28;20472;-74
2023/08/24 10:16:25;;;;;;;6.37;3.93;;;;;;;36.49;30.35;97309.47;5110974;27;20437;-74
2023/08/24 10:18:51;;;;;;;10.70;4.13;;;;;;;36.65;30.40;97298.91;5111172;28;20414;-75
2023/08/24 10:21:17;;;;;;;5.37;3.70;;;;;;;36.78;30.36;97302.56;5137118;27;20572;-76
2023/08/24 10:23:43;;;;;;;7.77;3.77;;;;;;;36.96;30.04;97300.66;5134053;27;20416;-75
2023/08/24 10:26:10;;;;;;;10.10;3.87;;;;;;;37.07;29.58;97301.13;5119187;28;20432;-75
2023/08/24 10:28:36;;;;;;;9.27;4.00;;;;;;;37.23;29.45;97291.31;5128857;27;20206;-75
2023/08/24 10:31:02;;;;;;;10.37;4.00;;;;;;;37.30;29.05;97290.78;5143061;27;20412;-76
2023/08/24 10:33:29;;;;;;;7.80;3.73;;;;;;;37.42;29.41;97290.94;5136039;27;20199;-75
2023/08/24 10:35:54;;;;;;;13.93;4.33;;;;;;;37.53;29.62;97293.31;5131019;27;20548;-76
2023/08/24 10:38:30;;;;;;;6.73;4.20;;;;;;;37.37;30.04;97287.53;5132887;27;21161;-75
2023/08/24 10:41:05;;;;;;;4.50;4.10;;;;;;;37.52;30.13;97292.50;5121095;27;20191;-75
2023/08/24 10:43:37;;;;;;;9.40;4.53;;;;;;;37.46;30.03;97285.63;5133185;27;20449;-75
2023/08/24 10:46:03;;;;;;;5.30;4.13;;;;;;;37.62;30.65;97281.19;5132792;27;20471;-74
2023/08/24 10:48:49;;;;;;;6.87;4.63;;;;;;;37.70;30.08;97273.28;5123906;27;20941;-74
2023/08/24 10:51:21;;;;;;;7.30;4.40;;;;;;;37.84;30.36;97267.59;5114649;27;20980;-76
2023/08/24 10:54:05;;;;;;;6.27;4.00;;;;;;;37.95;29.95;97255.97;5135084;27;20525;-73
2023/08/24 10:56:41;;;;;;;7.03;4.10;;;;;;;38.06;30.23;97255.56;5135709;27;20472;-73
2023/08/24 10:59:15;;;;;;;5.93;4.40;;;;;;;37.90;29.84;97260.84;5126348;27;20882;-74
2023/08/24 11:01:42;;;;;;;5.60;4.03;;;;;;;37.90;30.27;97256.16;5140715;27;20417;-75
2023/08/24 11:04:08;;;;;;;6.93;4.50;;;;;;;38.01;30.41;97245.63;5131739;27;20417;-75
2023/08/24 11:06:34;;;;;;;8.13;4.57;;;;;;;37.26;31.27;97243.41;5143755;27;20421;-74
2023/08/24 11:09:13;;;;;;;6.57;4.10;;;;;;;37.42;31.69;97243.69;5113685;27;20180;-74
2023/08/24 11:11:39;;;;;;;8.37;4.50;;;;;;;37.64;31.30;97237.94;5149469;27;20838;-74
2023/08/24 11:14:29;;;;;;;7.90;4.10;;;;;;;37.76;31.49;97237.25;5132517;27;20449;-73
2023/08/24 11:16:57;;;;;;;9.97;4.70;;;;;;;37.76;30.92;97236.44;5123545;27;20418;-75
2023/08/24 11:19:23;;;;;;;6.80;4.40;;;;;;;37.29;31.73;97231.84;5140825;27;20409;-74
2023/08/24 11:21:48;;;;;;;7.90;4.70;;;;;;;37.38;31.83;97224.38;5123493;27;21209;-75
2023/08/24 11:24:14;;;;;;;7.20;5.23;;;;;;;37.64;31.19;97224.28;5132082;27;20216;-75
2023/08/24 11:26:42;;;;;;;6.87;4.90;;;;;;;37.58;31.53;97216.59;5133754;27;20557;-73
2023/08/24 11:29:08;;;;;;;5.57;5.00;;;;;;;37.71;31.15;97210.09;5144856;27;20440;-74